aviador You're here:

KORH Decoded Metar

WORCESTER in MA, USA
Report Time2018-01-18 13:54:00
UTC Time2018-01-18 14:02:09
Flight Rules vfr VFR
Wind310° at 12 kt
W.Decomp.*RWY 33: 12.0 kt HW 1 kt LCW
RWY 29: 9.8 kt HW 6.9 kt RCW
W.Rank310° ranks 11
Current wind is above 310° avg. (9.9)
Visibility9999 m
Phenomena:N/A
Clouds:N/A
Expected CloudBase > 2,400 ft AGL from Temp-Dew spread
CeilingNone
Temp-8°C (ISA -21)
Dew Point-14°C (62% RH)
AAT-15.6°C
QNH1013 hPa
Density Alt-1,581 ft
Elevation997 ft
Report Wrong Elevation
Raw Report
KORH 181354Z 31012KT 10SM CLR M08/M14 A2991 RMK AO2 SLP143
T10831144=

Extra information for KORH:More info

Metar Taf Metar & Taf Last 4 Metars F.Rules Stats Wind Profile Meteogram Temp Stats Airport Information Weather charts Add Link Nearby VenuesMetar ALERT Operation Metar Decoded Social comments

AIRNAV info for KORH